Time;durP1;ratioP1;P1;durP2;ratioP2;P2;SDS_P1;SDS_P2;PMS_P1;PMS_P2;Temp;Humidity;BMP_temperature;BMP_pressure;BME280_temperature;BME280_humidity;BME280_pressure;Samples;Min_cycle;Max_cycle;Signal;HPM_P1;HPM_P2
2022/12/04 00:00:34;;;;;;;26.60;14.50;;;2.90;99.90;;;;;;5075949;28;20196;-64
2022/12/04 00:03:02;;;;;;;25.75;15.98;;;2.80;99.90;;;;;;5074292;28;20231;-64
2022/12/04 00:05:30;;;;;;;24.73;14.18;;;2.80;99.90;;;;;;5075809;28;20200;-65
2022/12/04 00:07:58;;;;;;;22.45;14.32;;;2.80;99.90;;;;;;5076243;28;20196;-65
2022/12/04 00:10:28;;;;;;;26.25;15.40;;;2.80;99.90;;;;;;5075781;28;20216;-65
2022/12/04 00:12:57;;;;;;;25.67;14.73;;;2.80;99.90;;;;;;5087908;28;20196;-65
2022/12/04 00:15:25;;;;;;;24.58;14.15;;;2.90;99.90;;;;;;5082198;28;20203;-65
2022/12/04 00:17:54;;;;;;;27.35;14.07;;;2.80;99.90;;;;;;5073227;28;20207;-65
2022/12/04 00:20:23;;;;;;;26.45;14.70;;;2.80;99.90;;;;;;5072831;28;20196;-65
2022/12/04 00:22:51;;;;;;;24.98;13.23;;;2.80;99.90;;;;;;5074705;28;20224;-65
2022/12/04 00:25:19;;;;;;;25.67;14.52;;;2.80;99.90;;;;;;5073860;28;20204;-65
2022/12/04 00:27:47;;;;;;;26.85;13.93;;;2.80;99.90;;;;;;5074305;28;20184;-65
2022/12/04 00:30:17;;;;;;;27.30;14.65;;;2.80;99.90;;;;;;5074552;28;20216;-64
2022/12/04 00:32:44;;;;;;;24.48;14.43;;;2.70;99.90;;;;;;5082382;28;20591;-65
2022/12/04 00:35:12;;;;;;;26.83;15.00;;;2.80;99.90;;;;;;5093214;28;20329;-65
2022/12/04 00:37:40;;;;;;;26.38;15.00;;;2.80;99.90;;;;;;5093971;28;20207;-65
2022/12/04 00:40:09;;;;;;;31.15;15.48;;;2.90;99.90;;;;;;5082922;28;20188;-65
2022/12/04 00:42:37;;;;;;;24.75;14.02;;;2.80;99.90;;;;;;5085762;28;20207;-65
2022/12/04 00:45:06;;;;;;;28.85;14.15;;;2.90;99.90;;;;;;5085156;28;20225;-65
2022/12/04 00:47:35;;;;;;;24.80;14.27;;;2.90;99.90;;;;;;5082801;28;20592;-62
2022/12/04 00:50:04;;;;;;;23.98;14.65;;;2.90;99.90;;;;;;5073522;28;20281;-65
2022/12/04 00:52:32;;;;;;;27.63;15.15;;;2.90;99.90;;;;;;5071948;28;20211;-65
2022/12/04 00:54:59;;;;;;;25.38;14.75;;;2.80;99.90;;;;;;5092000;28;20218;-65
2022/12/04 00:57:27;;;;;;;24.45;14.07;;;2.80;99.90;;;;;;5094210;28;20203;-65
2022/12/04 00:59:55;;;;;;;26.73;14.48;;;2.80;99.90;;;;;;5079758;28;20250;-65
2022/12/04 01:02:23;;;;;;;29.05;14.75;;;2.80;99.90;;;;;;5074686;28;20204;-65
2022/12/04 01:04:52;;;;;;;23.27;13.95;;;2.80;99.90;;;;;;5092382;28;20199;-65
2022/12/04 01:07:20;;;;;;;25.90;14.82;;;2.80;99.90;;;;;;5077343;28;20600;-65
2022/12/04 01:09:48;;;;;;;28.75;14.93;;;2.80;99.90;;;;;;5075553;28;20208;-62
2022/12/04 01:12:16;;;;;;;24.58;14.05;;;2.70;99.90;;;;;;5087466;28;20231;-64
2022/12/04 01:14:44;;;;;;;29.27;17.00;;;2.70;99.90;;;;;;5084389;28;20195;-64
2022/12/04 01:17:12;;;;;;;27.23;15.20;;;2.70;99.90;;;;;;5091415;28;20502;-63
2022/12/04 01:19:41;;;;;;;28.73;15.95;;;2.80;99.90;;;;;;5087493;28;20545;-64
2022/12/04 01:22:10;;;;;;;28.77;14.43;;;2.80;99.90;;;;;;5092979;28;20811;-63
2022/12/04 01:24:38;;;;;;;28.00;15.10;;;2.70;99.90;;;;;;5093873;28;20720;-64
2022/12/04 01:27:06;;;;;;;23.48;14.57;;;2.70;99.90;;;;;;5089209;28;20234;-64
2022/12/04 01:29:34;;;;;;;27.45;15.00;;;2.70;99.90;;;;;;5072938;28;20203;-65
2022/12/04 01:32:01;;;;;;;27.38;14.20;;;2.70;99.90;;;;;;5073127;28;20223;-65
2022/12/04 01:34:29;;;;;;;24.83;14.02;;;2.70;99.90;;;;;;5086976;28;20609;-65
2022/12/04 01:36:57;;;;;;;23.17;14.32;;;2.70;99.90;;;;;;5077395;28;20211;-66
2022/12/04 01:39:27;;;;;;;24.05;13.50;;;2.70;99.90;;;;;;5078845;28;20206;-65
2022/12/04 01:41:55;;;;;;;28.05;15.07;;;2.70;99.90;;;;;;5091300;28;20188;-64
2022/12/04 01:44:24;;;;;;;31.65;16.25;;;2.70;99.90;;;;;;5086844;28;20192;-65
2022/12/04 01:46:53;;;;;;;26.67;14.75;;;2.80;99.90;;;;;;5076535;28;20195;-64
2022/12/04 01:49:26;;;;;;;27.38;13.73;;;2.70;99.90;;;;;;5093323;28;20214;-64
2022/12/04 01:51:58;;;;;;;25.73;15.48;;;2.70;99.90;;;;;;5088467;28;20200;-65
2022/12/04 01:54:31;;;;;;;21.75;13.02;;;2.70;99.90;;;;;;5093157;28;20188;-65
2022/12/04 01:57:02;;;;;;;21.98;14.32;;;2.70;99.90;;;;;;5092805;28;20644;-63
2022/12/04 01:59:35;;;;;;;25.65;14.77;;;2.60;99.90;;;;;;5092954;28;20712;-63
2022/12/04 02:02:06;;;;;;;24.25;14.63;;;2.60;99.90;;;;;;5083562;28;20195;-64
2022/12/04 02:04:35;;;;;;;23.98;14.15;;;2.60;99.90;;;;;;5091732;28;20598;-64
2022/12/04 02:07:03;;;;;;;26.42;15.27;;;2.70;99.90;;;;;;5079286;28;20207;-64
2022/12/04 02:09:34;;;;;;;27.35;14.63;;;2.70;99.90;;;;;;5081613;28;20196;-64
2022/12/04 02:12:10;;;;;;;25.63;14.10;;;2.70;99.90;;;;;;5072414;28;20207;-64
2022/12/04 02:14:49;;;;;;;23.00;14.05;;;2.60;99.90;;;;;;5082484;28;20544;-64
2022/12/04 02:17:22;;;;;;;29.23;15.98;;;2.60;99.90;;;;;;5073189;28;20199;-64
2022/12/04 02:20:22;;;;;;;25.80;13.82;;;2.70;99.90;;;;;;5079275;28;20637;-65
2022/12/04 02:23:23;;;;;;;22.55;15.30;;;2.70;99.90;;;;;;5058506;28;20271;-64
2022/12/04 02:26:01;;;;;;;26.30;13.80;;;2.70;99.90;;;;;;5085274;28;20232;-64
2022/12/04 02:28:35;;;;;;;23.52;13.57;;;2.70;99.90;;;;;;5071884;28;20188;-63
2022/12/04 02:31:07;;;;;;;22.25;13.45;;;2.70;99.90;;;;;;5071991;28;20184;-63
2022/12/04 02:33:42;;;;;;;20.70;13.52;;;2.70;99.90;;;;;;5092400;28;20195;-64
2022/12/04 02:36:15;;;;;;;27.42;15.35;;;2.70;99.90;;;;;;5092143;28;20198;-64
2022/12/04 02:38:47;;;;;;;28.60;16.77;;;2.70;99.90;;;;;;5092846;28;20191;-65
2022/12/04 02:41:19;;;;;;;23.58;14.30;;;2.70;99.90;;;;;;5092020;28;20188;-64
2022/12/04 02:43:53;;;;;;;32.88;14.82;;;2.60;99.90;;;;;;5092546;28;20559;-64
2022/12/04 02:46:27;;;;;;;22.00;13.98;;;2.70;99.90;;;;;;5075389;28;20214;-64
2022/12/04 02:49:01;;;;;;;25.02;14.60;;;2.70;99.90;;;;;;5075094;28;20191;-64
2022/12/04 02:51:33;;;;;;;25.98;15.90;;;2.70;99.90;;;;;;5091757;28;20583;-64
2022/12/04 02:54:07;;;;;;;25.10;14.63;;;2.70;99.90;;;;;;5092435;28;20195;-64
2022/12/04 02:56:39;;;;;;;26.77;15.43;;;2.70;99.90;;;;;;5091850;28;20598;-64
2022/12/04 02:59:12;;;;;;;24.52;13.55;;;2.70;99.90;;;;;;5087486;28;20634;-64
2022/12/04 03:01:44;;;;;;;26.92;14.75;;;2.70;99.90;;;;;;5079417;28;20199;-64
2022/12/04 03:04:17;;;;;;;22.27;13.57;;;2.70;99.90;;;;;;5088221;28;20584;-65
2022/12/04 03:06:49;;;;;;;22.58;14.05;;;2.80;99.90;;;;;;5073752;28;20608;-64
2022/12/04 03:09:21;;;;;;;24.50;13.90;;;2.70;99.90;;;;;;5095374;28;20210;-65
2022/12/04 03:11:53;;;;;;;26.70;14.60;;;2.70;99.90;;;;;;5095296;28;20267;-64
2022/12/04 03:14:26;;;;;;;24.00;14.20;;;2.70;99.90;;;;;;5093905;28;20203;-64
2022/12/04 03:16:58;;;;;;;24.25;14.60;;;2.70;99.90;;;;;;5086446;28;20226;-64
2022/12/04 03:19:34;;;;;;;20.73;12.65;;;2.80;99.90;;;;;;5075123;28;20188;-64
2022/12/04 03:22:08;;;;;;;21.92;13.85;;;2.80;99.90;;;;;;5075136;28;20682;-64
2022/12/04 03:24:38;;;;;;;23.45;15.35;;;2.80;99.90;;;;;;5079044;28;20513;-64
2022/12/04 03:27:12;;;;;;;22.15;14.05;;;2.70;99.90;;;;;;5079438;28;20232;-65
2022/12/04 03:29:44;;;;;;;22.77;13.50;;;2.80;99.90;;;;;;5076837;28;20191;-65
2022/12/04 03:32:15;;;;;;;21.80;13.55;;;2.80;99.90;;;;;;5094938;28;20219;-65
2022/12/04 03:34:51;;;;;;;24.20;14.52;;;2.80;99.90;;;;;;5088121;28;20199;-66
2022/12/04 03:37:24;;;;;;;22.27;14.32;;;2.80;99.90;;;;;;5074598;28;20196;-65
2022/12/04 03:39:58;;;;;;;24.98;14.40;;;2.80;99.90;;;;;;5074039;28;20199;-65
2022/12/04 03:42:33;;;;;;;26.42;13.32;;;2.90;99.90;;;;;;5079178;28;20187;-65
2022/12/04 03:45:07;;;;;;;21.50;13.05;;;2.80;99.90;;;;;;5074335;28;20575;-66
2022/12/04 03:47:40;;;;;;;23.58;14.73;;;2.80;99.90;;;;;;5075016;28;20191;-65
2022/12/04 03:50:13;;;;;;;22.70;13.75;;;2.70;99.90;;;;;;5074466;28;20241;-64
2022/12/04 03:52:48;;;;;;;24.15;14.88;;;2.70;99.90;;;;;;5088789;28;20208;-66
2022/12/04 03:55:23;;;;;;;23.05;13.68;;;2.80;99.90;;;;;;5074069;28;20241;-65
2022/12/04 03:57:56;;;;;;;21.73;13.00;;;2.70;99.90;;;;;;5090071;28;20191;-65
2022/12/04 04:00:26;;;;;;;23.15;13.48;;;2.80;99.90;;;;;;5093053;28;20191;-65
2022/12/04 04:03:06;;;;;;;27.77;13.32;;;2.80;99.90;;;;;;5091175;28;20589;-65
2022/12/04 04:05:36;;;;;;;24.17;13.98;;;2.80;99.90;;;;;;5093715;28;20585;-66
2022/12/04 04:10:52;;;;;;;21.83;14.65;;;2.80;99.90;;;;;;5074882;28;20195;-65
2022/12/04 04:24:58;;;;;;;23.77;12.90;;;2.90;99.90;;;;;;5072652;28;20192;-65
2022/12/04 04:27:26;;;;;;;23.73;15.40;;;2.90;99.90;;;;;;5054027;28;20197;-64
2022/12/04 04:29:54;;;;;;;23.50;13.52;;;2.80;99.90;;;;;;5053783;28;20516;-65
2022/12/04 04:32:34;;;;;;;24.05;13.70;;;2.80;99.90;;;;;;5054437;28;20216;-64
2022/12/04 04:35:12;;;;;;;21.75;12.85;;;2.80;99.90;;;;;;5053518;28;20192;-64
2022/12/04 04:37:50;;;;;;;23.20;12.73;;;2.90;99.90;;;;;;5049629;28;20538;-64
2022/12/04 04:40:23;;;;;;;21.88;13.48;;;2.90;99.90;;;;;;5041655;28;20189;-65
2022/12/04 04:42:57;;;;;;;20.88;12.60;;;2.90;99.90;;;;;;5052694;28;20204;-65
2022/12/04 04:45:32;;;;;;;21.88;14.68;;;2.90;99.90;;;;;;5052749;28;20197;-64
2022/12/04 04:48:06;;;;;;;19.10;12.80;;;2.90;99.90;;;;;;5053603;28;20207;-65
2022/12/04 04:50:35;;;;;;;26.13;15.45;;;2.90;99.90;;;;;;5053029;28;20193;-64
2022/12/04 04:53:08;;;;;;;23.45;14.77;;;2.90;99.90;;;;;;5053351;28;20586;-65
2022/12/04 04:55:36;;;;;;;25.20;13.63;;;2.90;99.90;;;;;;5053137;28;20246;-64
2022/12/04 04:58:09;;;;;;;21.58;13.20;;;3.00;99.90;;;;;;5053357;28;20601;-65
2022/12/04 05:00:38;;;;;;;22.50;13.20;;;3.00;99.90;;;;;;5052719;28;20651;-65
2022/12/04 05:03:07;;;;;;;21.50;12.90;;;2.90;99.90;;;;;;5052265;28;20593;-65
2022/12/04 05:05:35;;;;;;;20.17;12.55;;;2.90;99.90;;;;;;5052375;28;20200;-66
2022/12/04 05:08:02;;;;;;;22.85;13.30;;;2.90;99.90;;;;;;5053171;28;20200;-65
2022/12/04 05:10:30;;;;;;;20.27;12.63;;;2.90;99.90;;;;;;5053157;28;20205;-64
2022/12/04 05:12:58;;;;;;;18.33;11.52;;;2.80;99.90;;;;;;5052980;28;20223;-64
2022/12/04 05:15:26;;;;;;;19.42;12.10;;;2.80;99.90;;;;;;5052584;28;20204;-64
2022/12/04 05:17:54;;;;;;;21.02;12.93;;;2.80;99.90;;;;;;5052660;28;20208;-65
2022/12/04 05:20:22;;;;;;;19.15;11.85;;;2.80;99.90;;;;;;5051778;28;20602;-65
2022/12/04 05:22:50;;;;;;;22.08;12.98;;;2.80;99.90;;;;;;5052534;28;20213;-64
2022/12/04 05:25:18;;;;;;;21.55;12.65;;;2.80;99.90;;;;;;5057311;28;20216;-66
2022/12/04 05:27:45;;;;;;;23.15;13.05;;;2.90;99.90;;;;;;5077723;28;20249;-64
2022/12/04 05:30:14;;;;;;;20.98;12.30;;;2.90;99.90;;;;;;5072927;28;20211;-65
2022/12/04 05:32:42;;;;;;;20.08;11.80;;;2.90;99.90;;;;;;5074622;28;20207;-66
2022/12/04 05:35:11;;;;;;;18.55;11.90;;;2.90;99.90;;;;;;5073152;28;20198;-66
2022/12/04 05:37:40;;;;;;;24.00;12.50;;;2.90;99.90;;;;;;5080559;28;20203;-66
2022/12/04 05:40:09;;;;;;;18.25;11.57;;;2.90;99.90;;;;;;5084379;28;20650;-66
2022/12/04 05:42:37;;;;;;;19.25;12.20;;;2.90;99.90;;;;;;5075022;28;20207;-66
2022/12/04 05:45:06;;;;;;;21.48;13.02;;;2.90;99.90;;;;;;5073059;28;20204;-66
2022/12/04 05:47:38;;;;;;;19.73;11.57;;;2.80;99.90;;;;;;5088204;28;20199;-66
2022/12/04 05:50:07;;;;;;;26.40;14.18;;;2.80;99.90;;;;;;5092681;28;20203;-66
2022/12/04 05:52:35;;;;;;;23.08;12.60;;;2.80;99.90;;;;;;5064778;28;20207;-65
2022/12/04 05:55:06;;;;;;;18.10;11.35;;;2.80;99.90;;;;;;5091239;28;20207;-65
2022/12/04 05:57:33;;;;;;;20.98;12.52;;;2.80;99.90;;;;;;5076665;28;20199;-66
2022/12/04 06:00:01;;;;;;;20.00;12.30;;;2.70;99.90;;;;;;5071950;28;20211;-65
2022/12/04 06:02:29;;;;;;;20.13;12.43;;;2.70;99.90;;;;;;5083745;28;20203;-65
2022/12/04 06:04:57;;;;;;;19.75;12.50;;;2.70;99.90;;;;;;5091831;28;20550;-65
2022/12/04 06:07:25;;;;;;;22.52;12.70;;;2.70;99.90;;;;;;5080627;28;20215;-66
2022/12/04 06:09:55;;;;;;;22.00;12.15;;;2.80;99.90;;;;;;5092038;28;20210;-65
2022/12/04 06:12:24;;;;;;;18.20;12.65;;;2.80;99.90;;;;;;5092693;28;20622;-65
2022/12/04 06:14:52;;;;;;;27.15;14.07;;;2.80;99.90;;;;;;5083956;28;20273;-65
2022/12/04 06:17:20;;;;;;;23.67;14.10;;;2.80;99.90;;;;;;5088702;28;20596;-64
2022/12/04 06:19:48;;;;;;;24.50;14.23;;;2.80;99.90;;;;;;5089209;28;20561;-65
2022/12/04 06:22:15;;;;;;;19.35;12.73;;;2.80;99.90;;;;;;5072302;28;20599;-65
2022/12/04 06:24:43;;;;;;;23.92;12.95;;;2.70;99.90;;;;;;5071880;28;20631;-65
2022/12/04 06:27:11;;;;;;;17.08;11.50;;;2.70;99.90;;;;;;5072084;28;20232;-65
2022/12/04 06:29:41;;;;;;;20.00;11.80;;;2.70;99.90;;;;;;5070703;28;20569;-65
2022/12/04 06:32:08;;;;;;;17.42;12.20;;;2.70;99.90;;;;;;5070765;28;20207;-65
2022/12/04 06:34:36;;;;;;;20.52;12.70;;;2.70;99.90;;;;;;5075504;28;20231;-65
2022/12/04 06:37:04;;;;;;;21.70;12.43;;;2.70;99.90;;;;;;5076063;28;20204;-65
2022/12/04 06:39:32;;;;;;;17.55;11.65;;;2.70;99.90;;;;;;5076134;28;20200;-65
2022/12/04 06:42:00;;;;;;;22.20;12.02;;;2.70;99.90;;;;;;5075878;28;20651;-65
2022/12/04 06:44:28;;;;;;;20.17;12.75;;;2.70;99.90;;;;;;5082238;28;20206;-65
2022/12/04 06:46:57;;;;;;;19.30;12.35;;;2.80;99.90;;;;;;5088098;28;20264;-65
2022/12/04 06:49:25;;;;;;;19.88;12.13;;;2.80;99.90;;;;;;5081933;28;20196;-65
2022/12/04 06:51:52;;;;;;;21.98;12.98;;;2.80;99.90;;;;;;5089454;28;20221;-64
2022/12/04 06:54:20;;;;;;;19.52;12.27;;;2.80;99.90;;;;;;5086632;28;20685;-66
2022/12/04 06:56:49;;;;;;;20.33;12.30;;;2.80;99.90;;;;;;5070962;28;20207;-65
2022/12/04 06:59:17;;;;;;;18.55;12.40;;;2.70;99.90;;;;;;5087235;28;20711;-65
2022/12/04 07:01:45;;;;;;;19.70;13.52;;;2.80;99.90;;;;;;5089837;28;20204;-65
2022/12/04 07:04:14;;;;;;;20.70;12.63;;;2.80;99.90;;;;;;5083292;28;20553;-65
2022/12/04 07:06:42;;;;;;;42.88;18.10;;;2.80;99.90;;;;;;5084116;28;20207;-64
2022/12/04 07:09:13;;;;;;;37.05;19.08;;;2.80;99.90;;;;;;5084723;28;20216;-66
2022/12/04 07:11:42;;;;;;;22.50;12.85;;;2.80;99.90;;;;;;5084463;28;20562;-64
2022/12/04 07:14:11;;;;;;;21.45;12.50;;;2.80;99.90;;;;;;5085338;28;20231;-64
2022/12/04 07:16:41;;;;;;;19.35;11.35;;;2.80;99.90;;;;;;5081528;28;20222;-64
2022/12/04 07:19:09;;;;;;;23.25;12.80;;;2.80;99.90;;;;;;5085275;28;20211;-64
2022/12/04 07:21:38;;;;;;;19.80;12.88;;;2.90;99.90;;;;;;5085905;28;20273;-64
2022/12/04 07:24:06;;;;;;;18.25;11.10;;;2.90;99.90;;;;;;5087124;28;20239;-64
2022/12/04 07:26:34;;;;;;;17.30;11.45;;;2.90;99.90;;;;;;5085488;28;20795;-64
2022/12/04 07:29:02;;;;;;;18.27;12.63;;;2.90;99.90;;;;;;5085174;28;20204;-64
2022/12/04 07:31:30;;;;;;;26.23;14.68;;;2.90;99.90;;;;;;5087315;28;20206;-64
2022/12/04 07:33:58;;;;;;;22.42;13.48;;;2.90;99.90;;;;;;5088132;28;20223;-66
2022/12/04 07:36:27;;;;;;;20.98;13.27;;;2.90;99.90;;;;;;5075932;28;20196;-65
2022/12/04 07:38:56;;;;;;;17.70;11.40;;;2.90;99.90;;;;;;5090619;28;20199;-65
2022/12/04 07:41:25;;;;;;;20.60;12.20;;;2.90;99.90;;;;;;5092233;28;20199;-65
2022/12/04 07:43:54;;;;;;;22.40;12.57;;;2.90;99.90;;;;;;5074546;28;20669;-65
2022/12/04 07:46:24;;;;;;;21.90;12.48;;;2.90;99.90;;;;;;5081936;28;20245;-65
2022/12/04 07:48:52;;;;;;;21.42;13.00;;;2.90;99.90;;;;;;5093270;28;20199;-65
2022/12/04 07:51:22;;;;;;;21.15;12.10;;;2.90;99.90;;;;;;5094565;28;20200;-65
2022/12/04 07:53:52;;;;;;;19.30;12.20;;;2.90;99.90;;;;;;5092305;28;20539;-65
2022/12/04 07:56:21;;;;;;;21.35;12.00;;;3.00;99.90;;;;;;5094229;28;20203;-66
2022/12/04 07:58:49;;;;;;;18.65;11.02;;;3.00;99.90;;;;;;5083746;28;20221;-65
2022/12/04 08:01:19;;;;;;;22.13;13.10;;;3.00;99.90;;;;;;5084033;28;20204;-65
2022/12/04 08:03:48;;;;;;;22.27;12.75;;;3.00;99.90;;;;;;5090872;28;20210;-65
2022/12/04 08:06:17;;;;;;;20.77;12.15;;;3.00;99.90;;;;;;5089387;28;20230;-65
2022/12/04 08:08:46;;;;;;;18.77;12.57;;;3.00;99.90;;;;;;5096089;28;20203;-65
2022/12/04 08:11:15;;;;;;;21.27;13.52;;;3.00;99.90;;;;;;5078326;28;20249;-65
2022/12/04 08:13:45;;;;;;;20.63;12.60;;;3.00;99.90;;;;;;5096258;28;20199;-65
2022/12/04 08:16:15;;;;;;;22.25;12.10;;;3.00;99.90;;;;;;5073689;28;20540;-64
2022/12/04 08:18:47;;;;;;;19.15;10.98;;;3.00;99.90;;;;;;5096954;28;20207;-65
2022/12/04 08:21:18;;;;;;;19.77;11.80;;;3.00;99.90;;;;;;5096035;28;20196;-65
2022/12/04 08:23:47;;;;;;;17.50;11.40;;;3.10;99.90;;;;;;5096170;28;20220;-65
2022/12/04 08:26:16;;;;;;;21.20;13.15;;;3.10;99.90;;;;;;5062803;28;20232;-65
2022/12/04 08:28:47;;;;;;;19.10;11.55;;;3.10;99.90;;;;;;5055797;28;20200;-66
2022/12/04 08:31:17;;;;;;;20.65;12.80;;;3.10;99.90;;;;;;5052648;28;20205;-65
2022/12/04 08:33:45;;;;;;;22.48;12.20;;;3.10;99.90;;;;;;5048160;28;20203;-65
2022/12/04 08:36:18;;;;;;;21.25;12.38;;;3.20;99.90;;;;;;5053668;28;20219;-70
2022/12/04 08:38:47;;;;;;;18.98;10.52;;;3.20;99.90;;;;;;5054178;28;20559;-65
2022/12/04 08:41:16;;;;;;;24.50;11.85;;;3.20;99.90;;;;;;5064070;28;20199;-65
2022/12/04 08:43:46;;;;;;;22.70;12.38;;;3.20;99.90;;;;;;5056199;28;20215;-65
2022/12/04 08:46:16;;;;;;;25.08;12.63;;;3.20;99.90;;;;;;5051511;28;20200;-65
2022/12/04 08:48:46;;;;;;;16.88;11.45;;;3.30;99.90;;;;;;5040583;28;20691;-64
2022/12/04 08:51:15;;;;;;;20.75;12.32;;;3.20;99.90;;;;;;5048353;28;20193;-64
2022/12/04 08:53:43;;;;;;;26.05;12.30;;;3.30;99.90;;;;;;5037218;28;20224;-65
2022/12/04 08:56:11;;;;;;;25.67;13.60;;;3.20;99.90;;;;;;5050466;28;20220;-64
2022/12/04 08:58:39;;;;;;;17.15;11.25;;;3.20;99.90;;;;;;5045397;28;20200;-64
2022/12/04 09:01:10;;;;;;;22.15;11.82;;;3.20;99.90;;;;;;5038654;28;20201;-65
2022/12/04 09:03:39;;;;;;;14.65;10.95;;;3.30;99.90;;;;;;5050623;28;20204;-64
2022/12/04 09:06:09;;;;;;;18.08;12.10;;;3.30;99.90;;;;;;5035308;28;20550;-64
2022/12/04 09:08:37;;;;;;;21.42;11.95;;;3.30;99.90;;;;;;5043771;28;20213;-64
2022/12/04 09:11:07;;;;;;;16.90;11.63;;;3.40;99.90;;;;;;5050616;28;20205;-64
2022/12/04 09:13:36;;;;;;;17.27;10.75;;;3.40;99.90;;;;;;5049643;28;20196;-65
2022/12/04 09:16:06;;;;;;;19.52;12.23;;;3.30;99.90;;;;;;5043498;28;20304;-64
2022/12/04 09:18:36;;;;;;;22.05;12.45;;;3.30;99.90;;;;;;5037212;28;20201;-64
2022/12/04 09:21:06;;;;;;;17.25;11.00;;;3.40;99.90;;;;;;5034068;28;20193;-64
2022/12/04 09:23:36;;;;;;;16.88;11.55;;;3.40;99.90;;;;;;5052963;28;20232;-65
2022/12/04 09:26:05;;;;;;;17.42;11.00;;;3.40;99.90;;;;;;5055930;28;20702;-65
2022/12/04 09:28:33;;;;;;;22.85;11.27;;;3.40;99.90;;;;;;5076777;28;20200;-65
2022/12/04 09:31:04;;;;;;;18.75;10.80;;;3.40;99.90;;;;;;5090156;28;20583;-65
2022/12/04 09:33:34;;;;;;;17.63;10.98;;;3.40;99.90;;;;;;5089781;28;20576;-65
2022/12/04 09:36:03;;;;;;;20.52;12.00;;;3.50;99.90;;;;;;5090040;28;20211;-65
2022/12/04 09:38:31;;;;;;;16.73;11.25;;;3.50;99.90;;;;;;5080134;28;20211;-66
2022/12/04 09:41:07;;;;;;;21.08;11.82;;;3.60;99.90;;;;;;5088962;28;20199;-64
2022/12/04 09:43:42;;;;;;;17.45;12.02;;;3.60;99.90;;;;;;5093135;28;20609;-64
2022/12/04 09:46:13;;;;;;;18.90;11.20;;;3.60;99.90;;;;;;5080819;28;20195;-66
2022/12/04 09:48:44;;;;;;;15.15;10.10;;;3.60;99.90;;;;;;5080800;28;20192;-65
2022/12/04 09:51:18;;;;;;;20.25;10.00;;;3.60;99.90;;;;;;5060119;28;20569;-66
2022/12/04 09:53:51;;;;;;;16.42;10.93;;;3.60;99.90;;;;;;5089784;28;20207;-67
2022/12/04 09:56:21;;;;;;;16.73;10.68;;;3.70;99.90;;;;;;5089925;28;20206;-66
2022/12/04 09:58:53;;;;;;;16.63;10.70;;;3.70;99.90;;;;;;5082735;28;20200;-65
2022/12/04 10:01:24;;;;;;;18.08;10.38;;;3.60;99.90;;;;;;5089249;28;20202;-64
2022/12/04 10:03:55;;;;;;;16.70;10.85;;;3.60;99.90;;;;;;5090859;28;20688;-66
2022/12/04 10:06:25;;;;;;;16.52;10.38;;;3.70;99.90;;;;;;5080149;28;20195;-65
2022/12/04 10:09:00;;;;;;;18.10;11.00;;;3.80;99.90;;;;;;5082182;28;20196;-65
2022/12/04 10:11:40;;;;;;;20.08;11.20;;;3.80;99.90;;;;;;5072086;28;20199;-66
2022/12/04 10:14:35;;;;;;;20.35;12.35;;;3.80;99.90;;;;;;5072090;28;20275;-65
2022/12/04 10:17:21;;;;;;;19.17;12.73;;;3.80;99.90;;;;;;5046071;28;20231;-66
2022/12/04 10:19:58;;;;;;;16.73;11.35;;;3.80;99.90;;;;;;5064776;28;20589;-66
2022/12/04 10:22:35;;;;;;;15.15;10.48;;;3.80;99.90;;;;;;5054488;28;20224;-65
2022/12/04 10:25:08;;;;;;;17.65;11.27;;;3.80;99.90;;;;;;5082775;28;20187;-65
2022/12/04 10:27:42;;;;;;;19.50;11.57;;;3.80;99.90;;;;;;5084303;28;20685;-65
2022/12/04 10:30:19;;;;;;;17.67;11.05;;;3.80;99.90;;;;;;5089103;28;20215;-65
2022/12/04 10:32:48;;;;;;;19.05;12.00;;;3.80;99.90;;;;;;5072704;28;20646;-65
2022/12/04 10:35:22;;;;;;;16.20;10.27;;;3.80;99.90;;;;;;5078244;28;20214;-65
2022/12/04 10:37:56;;;;;;;16.63;10.60;;;3.80;99.90;;;;;;5086841;28;20199;-65
2022/12/04 10:40:31;;;;;;;17.70;11.88;;;3.80;99.90;;;;;;5081019;28;20202;-65
2022/12/04 10:43:04;;;;;;;21.55;12.50;;;3.70;99.90;;;;;;5083954;28;20198;-65
2022/12/04 10:45:32;;;;;;;17.20;12.00;;;3.70;99.90;;;;;;5089997;28;20233;-65
2022/12/04 10:48:00;;;;;;;16.05;11.32;;;3.70;99.90;;;;;;5083388;28;20666;-64
2022/12/04 10:50:29;;;;;;;21.45;12.48;;;3.60;99.90;;;;;;5087300;28;20199;-65
2022/12/04 10:52:57;;;;;;;17.38;12.45;;;3.60;99.90;;;;;;5087881;28;20576;-65
2022/12/04 10:55:30;;;;;;;19.35;12.85;;;3.60;99.90;;;;;;5085466;28;20223;-64
2022/12/04 10:57:58;;;;;;;25.75;12.82;;;3.70;99.90;;;;;;5091880;28;20198;-64
2022/12/04 11:00:30;;;;;;;18.55;11.70;;;3.70;99.90;;;;;;5073685;28;20195;-65
2022/12/04 11:03:01;;;;;;;18.13;12.00;;;3.60;99.90;;;;;;5090468;28;20217;-64
2022/12/04 11:05:33;;;;;;;18.40;11.88;;;3.60;99.90;;;;;;5082170;28;20199;-64
2022/12/04 11:08:04;;;;;;;18.17;11.25;;;3.60;99.90;;;;;;5091689;28;20200;-65
2022/12/04 11:10:35;;;;;;;21.60;11.20;;;3.60;99.90;;;;;;5074685;28;20199;-65
2022/12/04 11:13:06;;;;;;;20.90;13.50;;;3.50;99.90;;;;;;5082782;28;20823;-65
2022/12/04 11:15:36;;;;;;;19.65;12.82;;;3.60;99.90;;;;;;5064245;28;20207;-66
2022/12/04 11:18:08;;;;;;;17.85;12.38;;;3.60;99.90;;;;;;5073891;28;20207;-65
2022/12/04 11:20:38;;;;;;;18.35;12.30;;;3.60;99.90;;;;;;5076503;28;20233;-65
2022/12/04 11:23:05;;;;;;;20.52;14.32;;;3.50;99.90;;;;;;5095389;28;20219;-65
2022/12/04 11:25:38;;;;;;;18.35;13.38;;;3.50;99.90;;;;;;5083616;28;20241;-65
2022/12/04 11:28:06;;;;;;;25.13;14.07;;;3.50;99.90;;;;;;5094360;28;20206;-65
2022/12/04 11:30:37;;;;;;;21.98;13.20;;;3.40;99.90;;;;;;5095073;28;20211;-65
2022/12/04 11:33:16;;;;;;;22.00;12.13;;;3.30;99.90;;;;;;5095364;28;20195;-66
2022/12/04 11:35:51;;;;;;;20.77;13.18;;;3.30;99.90;;;;;;5085099;28;20203;-65
2022/12/04 11:38:23;;;;;;;25.05;15.38;;;3.30;99.90;;;;;;5095122;28;20225;-66
2022/12/04 11:40:54;;;;;;;22.80;14.55;;;3.30;99.90;;;;;;5089215;28;20207;-65
2022/12/04 11:43:26;;;;;;;22.48;14.45;;;3.30;99.90;;;;;;5073668;28;20192;-65
2022/12/04 11:45:55;;;;;;;41.50;14.93;;;3.30;99.90;;;;;;5082348;28;20196;-65
2022/12/04 11:48:23;;;;;;;23.80;14.40;;;3.30;99.90;;;;;;5089213;28;20192;-65
2022/12/04 11:51:05;;;;;;;27.83;14.48;;;3.30;99.90;;;;;;5086439;28;20200;-66
2022/12/04 11:53:44;;;;;;;28.48;15.63;;;3.20;99.90;;;;;;5062894;28;20195;-65
2022/12/04 11:56:22;;;;;;;27.25;14.30;;;3.10;99.90;;;;;;5072965;28;20575;-65
2022/12/04 11:59:23;;;;;;;24.77;14.70;;;3.10;99.90;;;;;;5081522;28;20203;-65
2022/12/04 12:02:02;;;;;;;27.52;16.23;;;3.10;99.90;;;;;;5083008;28;20202;-65
2022/12/04 12:04:51;;;;;;;35.40;15.43;;;3.10;99.90;;;;;;5080794;28;20699;-65
2022/12/04 12:07:31;;;;;;;27.35;16.58;;;3.10;99.90;;;;;;5093975;28;20191;-65
2022/12/04 12:10:06;;;;;;;28.92;16.40;;;3.10;99.90;;;;;;5093858;28;20184;-65
2022/12/04 12:12:47;;;;;;;29.13;15.60;;;3.10;99.90;;;;;;5088491;28;20183;-64
2022/12/04 12:15:23;;;;;;;26.50;15.13;;;3.10;99.90;;;;;;5095214;28;20188;-66
2022/12/04 12:18:05;;;;;;;26.50;16.45;;;3.10;99.90;;;;;;5076425;28;20790;-65
2022/12/04 12:20:41;;;;;;;25.15;15.40;;;3.10;99.90;;;;;;5076414;28;20183;-65
2022/12/04 12:23:37;;;;;;;25.77;16.48;;;3.10;99.90;;;;;;5094205;28;20243;-64
2022/12/04 12:26:11;;;;;;;24.05;15.63;;;3.20;99.90;;;;;;5094406;28;20227;-65
2022/12/04 12:29:11;;;;;;;28.92;16.15;;;3.10;99.90;;;;;;5093905;28;20187;-65
2022/12/04 12:31:55;;;;;;;29.75;17.40;;;3.10;99.90;;;;;;5081190;28;20565;-64
2022/12/04 12:34:32;;;;;;;24.73;15.23;;;3.10;99.90;;;;;;5094383;28;20274;-65
2022/12/04 12:37:04;;;;;;;27.15;16.08;;;3.20;99.90;;;;;;5076133;28;20214;-65
2022/12/04 12:39:39;;;;;;;25.15;14.35;;;3.20;99.90;;;;;;5094604;28;20183;-65
2022/12/04 12:42:17;;;;;;;30.35;18.35;;;3.20;99.90;;;;;;5094358;28;20191;-65
2022/12/04 12:44:53;;;;;;;29.23;15.43;;;3.10;99.90;;;;;;5094624;28;20188;-65
2022/12/04 12:47:27;;;;;;;25.20;15.18;;;3.20;99.90;;;;;;5076131;28;20197;-65
2022/12/04 12:50:00;;;;;;;26.75;14.50;;;3.10;99.90;;;;;;5094658;28;20191;-65
2022/12/04 12:52:31;;;;;;;31.70;17.20;;;3.10;99.90;;;;;;5094042;28;20188;-65
2022/12/04 12:55:05;;;;;;;31.35;15.70;;;3.10;99.90;;;;;;5093911;28;20184;-65
2022/12/04 12:57:37;;;;;;;28.02;15.93;;;3.10;99.90;;;;;;5092747;28;20219;-65
2022/12/04 13:00:08;;;;;;;33.83;16.65;;;3.10;99.90;;;;;;5093987;28;20187;-65
2022/12/04 13:02:42;;;;;;;29.27;17.52;;;3.10;99.90;;;;;;5092090;28;20202;-65
2022/12/04 13:05:14;;;;;;;27.98;16.13;;;3.10;99.90;;;;;;5093976;28;20592;-65
2022/12/04 13:07:49;;;;;;;31.90;19.05;;;3.10;99.90;;;;;;5094360;28;20183;-65
2022/12/04 13:10:20;;;;;;;30.08;17.33;;;3.10;99.90;;;;;;5094166;28;20191;-65